Time;durP1;ratioP1;P1;durP2;ratioP2;P2;SDS_P1;SDS_P2;PMS_P1;PMS_P2;Temp;Humidity;BMP_temperature;BMP_pressure;BME280_temperature;BME280_humidity;BME280_pressure;Samples;Min_cycle;Max_cycle;Signal;HPM_P1;HPM_P2
2023/11/13 00:01:56;;;;;;;20.10;14.70;;;;;;;6.88;82.54;99751.13;129453;1262;114793;-69
2023/11/13 00:04:58;;;;;;;21.70;14.50;;;;;;;6.88;82.58;99756.64;129467;1281;114739;-64
2023/11/13 00:08:00;;;;;;;23.00;15.10;;;;;;;6.88;82.53;99755.06;129254;1261;115095;-65
2023/11/13 00:11:04;;;;;;;26.10;16.20;;;;;;;6.87;82.56;99763.95;129543;1282;114733;-67
2023/11/13 00:14:06;;;;;;;24.20;14.20;;;;;;;6.87;82.44;99770.90;129429;1266;115103;-66
2023/11/13 00:17:08;;;;;;;24.90;15.20;;;;;;;6.88;82.54;99772.83;129452;1265;114800;-66
2023/11/13 00:20:11;;;;;;;23.90;15.50;;;;;;;6.87;82.22;99778.89;129439;1280;115465;-66
2023/11/13 00:23:13;;;;;;;28.90;16.10;;;;;;;6.86;82.42;99780.88;129494;1264;114745;-65
2023/11/13 00:26:16;;;;;;;24.50;16.40;;;;;;;6.86;82.27;99780.34;129444;1282;114739;-65
2023/11/13 00:29:18;;;;;;;25.40;16.00;;;;;;;6.86;82.29;99784.44;129512;1264;115440;-65
2023/11/13 00:32:20;;;;;;;27.00;15.40;;;;;;;6.86;82.25;99782.66;129402;1282;114734;-65
2023/11/13 00:35:22;;;;;;;24.90;16.00;;;;;;;6.87;82.26;99787.23;129337;1267;128373;-63
2023/11/13 00:38:24;;;;;;;26.90;15.60;;;;;;;6.86;82.03;99779.26;129353;1264;115190;-66
2023/11/13 00:41:27;;;;;;;22.30;15.00;;;;;;;6.86;81.87;99773.27;129418;1265;114837;-67
2023/11/13 00:44:30;;;;;;;24.40;15.60;;;;;;;6.87;81.93;99778.38;129392;1260;114729;-62
2023/11/13 00:47:33;;;;;;;19.30;13.60;;;;;;;6.86;81.74;99776.98;129481;1276;114760;-66
2023/11/13 00:50:35;;;;;;;20.80;14.00;;;;;;;6.86;81.70;99773.43;129603;1283;114845;-66
2023/11/13 00:53:37;;;;;;;20.50;13.80;;;;;;;6.84;81.69;99768.51;129492;1283;115434;-66
2023/11/13 00:56:40;;;;;;;17.50;13.70;;;;;;;6.84;81.43;99773.48;129526;1282;114743;-65
2023/11/13 00:59:45;;;;;;;24.10;12.50;;;;;;;6.84;81.54;99775.45;129433;1262;115205;-66
2023/11/13 01:02:47;;;;;;;;;;;;;;;6.84;81.41;99777.93;129400;1268;114855;-64
2023/11/13 01:05:50;;;;;;;20.80;12.80;;;;;;;6.84;81.63;99776.02;129421;1283;114727;-66
2023/11/13 01:08:52;;;;;;;19.60;13.20;;;;;;;6.83;81.53;99771.94;129467;1283;115151;-64
2023/11/13 01:11:55;;;;;;;18.70;12.20;;;;;;;6.83;81.73;99774.41;129481;1283;114769;-66
2023/11/13 01:14:57;;;;;;;20.70;12.30;;;;;;;6.84;81.48;99774.21;129447;1281;128841;-64
2023/11/13 01:17:59;;;;;;;17.30;11.80;;;;;;;6.83;81.35;99781.52;129435;1262;114797;-64
2023/11/13 01:21:03;;;;;;;20.80;11.80;;;;;;;6.84;81.21;99785.39;129529;1265;115062;-65
2023/11/13 01:24:05;;;;;;;19.10;11.30;;;;;;;6.84;81.28;99783.27;129242;1278;114825;-63
2023/11/13 01:27:07;;;;;;;20.50;11.00;;;;;;;6.83;80.91;99783.84;129471;1264;114761;-65
2023/11/13 01:30:11;;;;;;;15.20;9.80;;;;;;;6.82;80.90;99786.34;129496;1281;115273;-66
2023/11/13 01:33:13;;;;;;;18.10;9.80;;;;;;;6.82;80.60;99792.23;129394;1283;114807;-65
2023/11/13 01:36:15;;;;;;;16.50;8.30;;;;;;;6.80;80.71;99793.20;129419;1265;114735;-66
2023/11/13 01:39:17;;;;;;;14.80;8.30;;;;;;;6.79;80.22;99794.86;129518;1265;115258;-63
2023/11/13 01:42:19;;;;;;;13.60;7.60;;;;;;;6.78;80.36;99797.19;129430;1264;115115;-63
2023/11/13 01:45:22;;;;;;;11.80;7.70;;;;;;;6.77;80.09;99792.98;129487;1272;114733;-62
2023/11/13 01:48:25;;;;;;;14.50;8.40;;;;;;;6.76;80.16;99796.03;129422;1265;115128;-63
2023/11/13 01:51:28;;;;;;;13.00;8.00;;;;;;;6.76;80.35;99798.17;129501;1263;115212;-63
2023/11/13 01:54:32;;;;;;;11.70;8.10;;;;;;;6.75;80.26;99793.22;129456;1265;115493;-63
2023/11/13 01:57:35;;;;;;;13.70;8.30;;;;;;;6.74;80.35;99793.45;129384;1283;115372;-64
2023/11/13 02:00:37;;;;;;;16.40;8.50;;;;;;;6.73;79.99;99791.55;129523;1260;115225;-63
2023/11/13 02:03:40;;;;;;;12.50;8.30;;;;;;;6.70;79.83;99789.01;129501;1281;114755;-67
2023/11/13 02:06:45;;;;;;;12.50;8.70;;;;;;;6.66;79.62;99788.96;129618;1283;115250;-65
2023/11/13 02:09:51;;;;;;;10.00;7.60;;;;;;;6.64;79.85;99781.95;129530;1282;128830;-65
2023/11/13 02:12:53;;;;;;;12.80;8.70;;;;;;;6.62;79.87;99783.12;129273;1283;115185;-67
2023/11/13 02:15:55;;;;;;;10.60;8.20;;;;;;;6.60;79.50;99777.90;129473;1283;114748;-66
2023/11/13 02:18:57;;;;;;;13.50;8.00;;;;;;;6.57;79.91;99777.14;129554;1281;115346;-67
2023/11/13 02:22:00;;;;;;;15.30;8.20;;;;;;;6.52;79.64;99771.30;129221;1268;116436;-65
2023/11/13 02:25:02;;;;;;;13.10;8.30;;;;;;;6.46;79.48;99765.34;129505;1283;114827;-65
2023/11/13 02:28:05;;;;;;;11.90;8.00;;;;;;;6.38;79.41;99766.73;129466;1283;114729;-66
2023/11/13 02:31:07;;;;;;;13.50;7.90;;;;;;;6.28;79.35;99772.09;129694;1283;114701;-65
2023/11/13 02:34:10;;;;;;;11.90;8.40;;;;;;;6.19;79.06;99777.42;129300;1265;115271;-65
2023/11/13 02:37:12;;;;;;;15.70;8.30;;;;;;;6.09;79.07;99780.63;129453;1282;114770;-67
2023/11/13 02:40:16;;;;;;;13.60;8.00;;;;;;;6.00;79.22;99778.83;129463;1278;114740;-65
2023/11/13 02:43:18;;;;;;;14.70;9.00;;;;;;;5.93;79.37;99774.66;129537;1283;114774;-65
2023/11/13 02:46:21;;;;;;;12.90;8.10;;;;;;;5.85;79.54;99773.19;129388;1270;114794;-67
2023/11/13 02:49:23;;;;;;;13.90;8.50;;;;;;;5.77;79.39;99773.69;129628;1275;114812;-65
2023/11/13 02:52:26;;;;;;;12.40;7.90;;;;;;;5.67;79.21;99772.64;129129;1283;115271;-65
2023/11/13 02:55:28;;;;;;;13.90;7.50;;;;;;;5.58;79.41;99777.23;129478;1263;114742;-66
2023/11/13 02:58:30;;;;;;;15.50;8.20;;;;;;;5.48;79.30;99776.53;129543;1262;115151;-66
2023/11/13 03:01:32;;;;;;;14.90;7.90;;;;;;;5.39;79.46;99783.45;129279;1273;114757;-66
2023/11/13 03:04:35;;;;;;;10.00;7.20;;;;;;;5.27;79.47;99790.20;129180;1271;114893;-66
2023/11/13 03:07:37;;;;;;;12.50;7.60;;;;;;;5.17;79.57;99783.48;129578;1265;115266;-65
2023/11/13 03:10:39;;;;;;;11.80;7.10;;;;;;;5.06;79.42;99776.98;129448;1283;114737;-66
2023/11/13 03:13:42;;;;;;;13.90;7.70;;;;;;;4.95;79.40;99774.17;129595;1279;114797;-65
2023/11/13 03:16:45;;;;;;;15.60;7.60;;;;;;;4.85;79.38;99775.42;129254;1259;114928;-63
2023/11/13 03:19:47;;;;;;;10.90;8.00;;;;;;;4.73;79.42;99773.49;129594;1264;114733;-65
2023/11/13 03:22:50;;;;;;;11.30;7.50;;;;;;;4.63;79.47;99775.25;129450;1265;114784;-66
2023/11/13 03:25:52;;;;;;;13.80;8.00;;;;;;;4.53;79.36;99776.30;129565;1282;114754;-66
2023/11/13 03:28:57;;;;;;;13.10;8.90;;;;;;;4.42;79.69;99772.94;129684;1264;128882;-66
2023/11/13 03:32:00;;;;;;;14.30;8.40;;;;;;;4.32;79.71;99772.04;129208;1281;115188;-64
2023/11/13 03:35:03;;;;;;;10.00;8.10;;;;;;;4.22;79.64;99765.80;129516;1262;114762;-65
2023/11/13 03:38:05;;;;;;;9.80;7.20;;;;;;;4.12;79.42;99765.77;129488;1262;115497;-65
2023/11/13 03:41:08;;;;;;;12.70;7.60;;;;;;;3.99;79.49;99763.53;129537;1259;114749;-65
2023/11/13 03:44:10;;;;;;;14.40;7.70;;;;;;;3.85;79.63;99763.94;129406;1262;114705;-65
2023/11/13 03:47:13;;;;;;;9.60;6.90;;;;;;;3.74;79.59;99767.13;129356;1281;114690;-65
2023/11/13 03:50:16;;;;;;;10.60;7.30;;;;;;;3.61;79.58;99774.56;129452;1281;114810;-63
2023/11/13 03:53:19;;;;;;;17.10;7.60;;;;;;;3.49;79.48;99773.14;129556;1281;114730;-64
2023/11/13 03:56:23;;;;;;;12.50;8.20;;;;;;;3.37;79.58;99781.77;129490;1281;114888;-63
2023/11/13 03:59:25;;;;;;;21.50;12.00;;;;;;;3.26;79.83;99787.20;129290;1266;114826;-63
2023/11/13 04:02:28;;;;;;;19.30;10.50;;;;;;;3.15;79.78;99791.02;129426;1281;114703;-64
2023/11/13 04:05:30;;;;;;;15.20;9.20;;;;;;;3.04;79.80;99784.45;129563;1281;114710;-65
2023/11/13 04:08:32;;;;;;;16.00;9.60;;;;;;;2.93;79.87;99791.09;129049;1273;128856;-65
2023/11/13 04:11:35;;;;;;;15.80;8.90;;;;;;;2.83;79.90;99797.17;129384;1265;114761;-65
2023/11/13 04:14:37;;;;;;;16.00;9.00;;;;;;;2.73;80.18;99798.65;129494;1263;114716;-63
2023/11/13 04:17:40;;;;;;;12.80;8.70;;;;;;;2.63;80.15;99793.27;129525;1283;115168;-63
2023/11/13 04:20:42;;;;;;;14.00;8.90;;;;;;;2.54;80.35;99793.48;129205;1266;114870;-64
2023/11/13 04:23:44;;;;;;;14.00;8.10;;;;;;;2.45;80.29;99797.22;129405;1265;114776;-64
2023/11/13 04:26:47;;;;;;;12.90;8.70;;;;;;;2.37;80.31;99798.30;129278;1265;114858;-64
2023/11/13 04:29:49;;;;;;;15.10;8.90;;;;;;;2.29;80.60;99793.91;129436;1281;114810;-65
2023/11/13 04:32:51;;;;;;;15.50;9.90;;;;;;;2.22;80.53;99800.96;129199;1283;115271;-65
2023/11/13 04:35:54;;;;;;;15.90;9.30;;;;;;;2.14;80.81;99807.46;129493;1264;114807;-64
2023/11/13 04:38:56;;;;;;;19.40;11.60;;;;;;;2.07;81.06;99809.92;129490;1263;115331;-66
2023/11/13 04:41:59;;;;;;;16.70;11.20;;;;;;;2.01;81.09;99804.95;129440;1259;114741;-64
2023/11/13 04:45:01;;;;;;;16.70;11.00;;;;;;;1.94;80.90;99799.99;129532;1283;114733;-65
2023/11/13 04:48:05;;;;;;;17.60;11.00;;;;;;;1.89;81.50;99800.98;129263;1283;128619;-64
2023/11/13 04:51:07;;;;;;;15.50;10.90;;;;;;;1.83;81.22;99799.35;129445;1283;115219;-62
2023/11/13 04:54:09;;;;;;;17.60;11.80;;;;;;;1.78;81.42;99803.52;129475;1282;115273;-65
2023/11/13 04:57:12;;;;;;;18.30;11.70;;;;;;;1.72;81.61;99809.29;129532;1263;115244;-65
2023/11/13 05:00:15;;;;;;;18.00;11.60;;;;;;;1.65;81.60;99815.58;129318;1270;114649;-65
2023/11/13 05:03:19;;;;;;;19.80;12.30;;;;;;;1.60;82.02;99826.95;129527;1265;115172;-66
2023/11/13 05:06:22;;;;;;;21.10;12.60;;;;;;;1.57;82.30;99825.44;129565;1265;114834;-65
2023/11/13 05:09:26;;;;;;;10.40;8.20;;;;;;;1.57;82.46;99825.61;129150;1283;115275;-66
2023/11/13 05:12:28;;;;;;;18.70;13.00;;;;;;;1.58;82.81;99826.98;129340;1260;114868;-64
2023/11/13 05:15:30;;;;;;;21.80;14.40;;;;;;;1.60;82.83;99826.07;129508;1265;114768;-65
2023/11/13 05:18:32;;;;;;;22.20;14.40;;;;;;;1.63;83.55;99832.52;129547;1265;114745;-65
2023/11/13 05:21:35;;;;;;;23.90;15.40;;;;;;;1.67;83.68;99835.26;129524;1283;114773;-65
2023/11/13 05:24:38;;;;;;;23.80;15.40;;;;;;;1.72;83.77;99840.62;129423;1283;114773;-65
2023/11/13 05:27:40;;;;;;;21.00;15.50;;;;;;;1.77;83.81;99838.38;129463;1283;114769;-64
2023/11/13 05:30:43;;;;;;;20.30;14.30;;;;;;;1.84;84.14;99836.84;129517;1283;115314;-66
2023/11/13 05:33:46;;;;;;;23.80;15.40;;;;;;;1.90;84.41;99834.77;129573;1263;114725;-66
2023/11/13 05:36:48;;;;;;;23.60;14.00;;;;;;;1.98;84.54;99828.98;129363;1283;114881;-64
2023/11/13 05:39:50;;;;;;;31.50;23.30;;;;;;;2.04;84.87;99831.65;129361;1283;115183;-64
2023/11/13 05:42:53;;;;;;;37.40;27.00;;;;;;;2.11;84.99;99834.67;129420;1282;114758;-65
2023/11/13 05:45:56;;;;;;;45.20;26.90;;;;;;;2.17;85.02;99838.77;129507;1273;115316;-66
2023/11/13 05:48:59;;;;;;;30.80;21.30;;;;;;;2.23;85.08;99841.10;129230;1268;115271;-64
2023/11/13 05:52:01;;;;;;;31.70;22.30;;;;;;;2.29;85.33;99839.02;129529;1282;114754;-65
2023/11/13 05:55:03;;;;;;;25.70;18.40;;;;;;;2.35;85.30;99843.98;129518;1283;114729;-64
2023/11/13 05:58:06;;;;;;;27.70;19.30;;;;;;;2.41;85.41;99850.38;129575;1276;116361;-64
2023/11/13 06:01:08;;;;;;;53.50;29.70;;;;;;;2.45;85.32;99850.46;129452;1283;115344;-65
2023/11/13 06:04:10;;;;;;;45.20;25.10;;;;;;;2.49;85.35;99850.55;129497;1283;114741;-64
2023/11/13 06:07:12;;;;;;;33.30;20.50;;;;;;;2.53;85.31;99855.02;129523;1273;115107;-65
2023/11/13 06:10:15;;;;;;;39.10;23.40;;;;;;;2.57;85.36;99854.94;129591;1263;114812;-65
2023/11/13 06:13:17;;;;;;;34.40;21.50;;;;;;;2.60;85.57;99854.86;129236;1282;114935;-65
2023/11/13 06:16:20;;;;;;;34.30;20.60;;;;;;;2.63;85.61;99849.31;129627;1283;114816;-64
2023/11/13 06:19:23;;;;;;;34.30;21.10;;;;;;;2.68;85.60;99846.91;129731;1260;115374;-66
2023/11/13 06:22:26;;;;;;;31.60;20.30;;;;;;;2.72;85.69;99839.06;129915;1283;115109;-65
2023/11/13 06:25:29;;;;;;;28.10;17.80;;;;;;;2.77;85.73;99838.23;129970;1265;114734;-66
2023/11/13 06:28:31;;;;;;;32.70;19.70;;;;;;;2.82;85.73;99839.35;130073;1276;114821;-64
2023/11/13 06:31:34;;;;;;;27.70;18.40;;;;;;;2.86;85.79;99839.77;129957;1279;114834;-65
2023/11/13 06:34:36;;;;;;;29.00;18.80;;;;;;;2.90;85.81;99844.60;129612;1268;114762;-64
2023/11/13 06:37:41;;;;;;;34.80;22.90;;;;;;;2.96;85.75;99848.54;129986;1281;114850;-64
2023/11/13 06:40:43;;;;;;;106.50;62.00;;;;;;;3.01;85.94;99858.27;130380;1264;128044;-65
2023/11/13 06:43:45;;;;;;;104.50;59.70;;;;;;;3.06;86.00;99866.60;129668;1262;114774;-65
2023/11/13 06:46:47;;;;;;;35.10;23.70;;;;;;;3.13;86.19;99866.78;129797;1262;114720;-65
2023/11/13 06:49:49;;;;;;;48.40;29.40;;;;;;;3.19;86.07;99870.67;129694;1272;114766;-63
2023/11/13 06:52:52;;;;;;;34.90;23.70;;;;;;;3.26;86.11;99870.33;129516;1278;115072;-64
2023/11/13 06:55:55;;;;;;;36.80;20.10;;;;;;;3.32;86.25;99876.86;129464;1260;114726;-64
2023/11/13 06:58:57;;;;;;;26.70;16.60;;;;;;;3.40;86.27;99881.41;129521;1276;114733;-65
2023/11/13 07:02:01;;;;;;;26.10;16.10;;;;;;;3.49;86.39;99874.66;129527;1281;115087;-63
2023/11/13 07:05:03;;;;;;;23.30;15.60;;;;;;;3.56;86.22;99873.73;129529;1262;115258;-63
2023/11/13 07:08:05;;;;;;;23.90;16.00;;;;;;;3.67;86.45;99878.05;129539;1263;114913;-65
2023/11/13 07:11:10;;;;;;;22.50;16.00;;;;;;;3.77;86.63;99890.30;129489;1281;114862;-62
2023/11/13 07:14:16;;;;;;;24.90;15.90;;;;;;;3.88;86.48;99891.23;129329;1280;114886;-65
2023/11/13 07:17:18;;;;;;;20.60;15.00;;;;;;;3.99;86.51;99886.34;129375;1282;128109;-65
2023/11/13 07:20:20;;;;;;;22.20;14.90;;;;;;;4.10;86.62;99889.89;129305;1283;114999;-65
2023/11/13 07:23:22;;;;;;;22.30;15.10;;;;;;;4.21;86.70;99893.81;129476;1260;114770;-66
2023/11/13 07:26:26;;;;;;;28.30;17.40;;;;;;;4.30;86.65;99895.82;129572;1263;114743;-64
2023/11/13 07:29:30;;;;;;;25.20;17.70;;;;;;;4.40;86.76;99893.77;129471;1273;114767;-63
2023/11/13 07:32:32;;;;;;;26.20;17.10;;;;;;;4.49;86.69;99890.66;129408;1283;114812;-66
2023/11/13 07:35:37;;;;;;;21.90;16.90;;;;;;;4.59;86.79;99888.21;129512;1283;115354;-64
2023/11/13 07:38:42;;;;;;;28.40;18.40;;;;;;;4.71;86.70;99895.29;129511;1283;116424;-65
2023/11/13 07:41:45;;;;;;;;;;;;;;;4.82;86.55;99894.94;129504;1283;114755;-64
2023/11/13 07:44:50;;;;;;;32.10;20.50;;;;;;;4.92;86.31;99894.98;129642;1283;114753;-65
2023/11/13 07:47:52;;;;;;;36.10;23.60;;;;;;;5.00;86.32;99885.50;129316;1282;114850;-64
2023/11/13 07:50:54;;;;;;;39.80;22.70;;;;;;;5.09;86.51;99880.24;129528;1282;114724;-65
2023/11/13 07:53:56;;;;;;;35.00;22.30;;;;;;;5.16;86.47;99873.46;129596;1282;114751;-65
2023/11/13 07:56:58;;;;;;;29.10;20.30;;;;;;;5.21;86.48;99876.65;129389;1282;115308;-65
2023/11/13 08:00:03;;;;;;;36.00;21.80;;;;;;;5.26;86.45;99878.08;129548;1273;115248;-65
2023/11/13 08:03:06;;;;;;;33.80;22.40;;;;;;;5.30;86.29;99872.27;129429;1263;114917;-62
2023/11/13 08:06:10;;;;;;;34.30;22.70;;;;;;;5.35;86.35;99871.91;129474;1264;114741;-65
2023/11/13 08:09:15;;;;;;;38.30;23.40;;;;;;;5.39;86.16;99869.85;129230;1276;128341;-64
2023/11/13 08:12:18;;;;;;;35.30;22.90;;;;;;;5.41;86.17;99868.00;129307;1283;114959;-66
2023/11/13 08:15:20;;;;;;;40.40;23.10;;;;;;;5.42;86.20;99870.61;129590;1264;114732;-65
2023/11/13 08:18:22;;;;;;;34.30;21.40;;;;;;;5.42;86.07;99870.79;129488;1260;114767;-65
2023/11/13 08:21:25;;;;;;;28.70;19.80;;;;;;;5.42;86.07;99864.78;129560;1283;115178;-64
2023/11/13 08:24:27;;;;;;;31.90;19.40;;;;;;;5.39;86.12;99866.80;129412;1270;114866;-66
2023/11/13 08:27:29;;;;;;;29.20;17.60;;;;;;;5.39;86.21;99863.29;129451;1273;115182;-65
2023/11/13 08:30:31;;;;;;;29.70;17.70;;;;;;;5.38;85.88;99860.85;129519;1260;114802;-65
2023/11/13 08:33:33;;;;;;;25.20;14.40;;;;;;;5.37;86.00;99859.64;129137;1283;115171;-64
2023/11/13 08:36:35;;;;;;;28.20;11.70;;;;;;;5.40;85.99;99857.59;129523;1279;114746;-65
2023/11/13 08:39:38;;;;;;;15.70;9.10;;;;;;;5.47;85.87;99855.01;129569;1263;115352;-64
2023/11/13 08:42:41;;;;;;;27.90;9.40;;;;;;;5.60;85.74;99862.38;129465;1277;114826;-64
2023/11/13 08:45:44;;;;;;;13.70;7.80;;;;;;;5.74;85.62;99863.61;129612;1283;114793;-64
2023/11/13 08:48:46;;;;;;;12.90;7.10;;;;;;;5.91;85.33;99865.33;129358;1274;128592;-64
2023/11/13 08:51:48;;;;;;;16.50;6.80;;;;;;;6.05;85.06;99864.29;129531;1259;115249;-63
2023/11/13 08:54:50;;;;;;;12.70;6.00;;;;;;;6.21;84.68;99863.00;127003;1263;3623396;-63
2023/11/13 08:57:54;;;;;;;14.20;6.40;;;;;;;6.38;84.33;99861.98;129432;1266;114885;-66
2023/11/13 09:00:57;;;;;;;14.20;6.30;;;;;;;6.55;84.07;99863.60;129210;1265;114753;-65
2023/11/13 09:03:59;;;;;;;17.80;6.20;;;;;;;6.74;83.66;99866.20;129573;1280;114793;-64
2023/11/13 09:07:07;;;;;;;13.50;7.10;;;;;;;6.92;83.37;99861.05;129496;1283;114874;-64
2023/11/13 09:10:10;;;;;;;24.80;9.70;;;;;;;7.12;82.52;99855.24;129393;1260;115273;-63
2023/11/13 09:13:12;;;;;;;40.00;18.00;;;;;;;7.33;82.29;99852.57;129653;1263;114829;-63
2023/11/13 09:16:15;;;;;;;53.60;26.30;;;;;;;7.50;81.87;99858.23;129720;1262;114751;-63
2023/11/13 09:19:17;;;;;;;48.80;23.90;;;;;;;7.66;81.61;99861.59;129665;1281;114797;-64
2023/11/13 09:22:21;;;;;;;75.50;38.50;;;;;;;7.81;80.86;99859.17;129676;1264;114821;-64
2023/11/13 09:25:23;;;;;;;44.40;25.10;;;;;;;7.91;80.77;99855.69;129323;1276;128302;-64
2023/11/13 09:28:25;;;;;;;31.30;19.00;;;;;;;7.96;80.20;99850.64;129578;1281;115177;-64
2023/11/13 09:31:27;;;;;;;20.60;13.00;;;;;;;7.99;79.84;99851.40;129880;1272;114865;-63
2023/11/13 09:34:29;;;;;;;20.10;13.40;;;;;;;8.00;79.95;99852.08;129512;1274;114732;-64
2023/11/13 09:37:32;;;;;;;14.10;8.10;;;;;;;7.99;79.57;99850.70;129592;1274;114784;-64
2023/11/13 09:40:34;;;;;;;13.70;6.60;;;;;;;7.94;79.14;99849.33;129539;1265;115204;-63
2023/11/13 09:43:39;;;;;;;12.90;5.10;;;;;;;7.89;78.65;99848.50;129736;1280;114749;-63
2023/11/13 09:46:41;;;;;;;12.00;4.90;;;;;;;7.83;77.82;99846.45;129433;1281;128349;-64
2023/11/13 09:50:15;;;;;;;13.00;4.80;;;;;;;7.82;77.90;99843.65;129822;1264;114703;-64
2023/11/13 09:53:20;;;;;;;12.20;5.20;;;;;;;7.84;77.19;99851.73;129371;1260;114925;-65
2023/11/13 09:56:23;;;;;;;12.50;4.60;;;;;;;7.89;77.04;99852.21;129509;1267;114845;-67
2023/11/13 09:59:29;;;;;;;8.40;4.50;;;;;;;7.95;77.10;99854.95;129575;1282;114747;-66
2023/11/13 10:02:31;;;;;;;8.80;4.50;;;;;;;8.03;76.69;99857.79;129283;1279;128281;-67
2023/11/13 10:05:34;;;;;;;9.40;4.20;;;;;;;8.11;76.31;99858.69;129399;1281;114803;-65
2023/11/13 10:08:47;;;;;;;8.30;5.00;;;;;;;8.18;76.11;99849.98;129817;1264;114823;-66
2023/11/13 10:11:49;;;;;;;8.40;4.10;;;;;;;8.26;75.08;99840.75;129322;1263;114966;-66
2023/11/13 10:15:12;;;;;;;7.50;3.70;;;;;;;8.29;74.59;99836.17;129713;1261;114777;-67
2023/11/13 10:18:15;;;;;;;8.00;3.90;;;;;;;8.31;74.11;99834.80;129519;1273;128404;-65
2023/11/13 10:21:32;;;;;;;7.30;3.60;;;;;;;8.35;73.97;99830.54;129530;1261;115198;-65
2023/11/13 10:24:34;;;;;;;10.50;3.30;;;;;;;8.40;73.86;99832.06;129589;1281;114738;-67
2023/11/13 10:27:39;;;;;;;9.80;3.40;;;;;;;8.45;73.05;99827.39;129634;1274;114894;-66
2023/11/13 10:30:50;;;;;;;12.30;3.20;;;;;;;8.49;72.75;99826.47;129649;1281;114742;-66
2023/11/13 10:34:02;;;;;;;7.10;3.40;;;;;;;8.55;72.15;99823.52;129388;1275;128377;-67
2023/11/13 10:37:12;;;;;;;5.10;2.70;;;;;;;8.60;71.73;99812.23;129377;1279;116487;-66
2023/11/13 10:40:26;;;;;;;8.00;3.20;;;;;;;8.65;71.12;99813.98;129529;1264;114968;-66
2023/11/13 10:43:31;;;;;;;6.00;2.60;;;;;;;8.70;71.32;99813.23;129531;1266;114760;-65
2023/11/13 10:46:33;;;;;;;5.20;2.10;;;;;;;8.74;70.99;99811.95;129388;1277;116301;-67
2023/11/13 10:49:36;;;;;;;8.70;2.70;;;;;;;8.78;70.70;99807.30;129634;1263;114789;-65
2023/11/13 10:52:38;;;;;;;10.00;3.70;;;;;;;8.84;70.16;99810.91;129697;1262;114852;-65
2023/11/13 10:55:42;;;;;;;6.30;2.80;;;;;;;8.89;70.04;99812.28;129578;1280;115253;-67
2023/11/13 10:58:44;;;;;;;9.80;3.80;;;;;;;8.91;69.90;99810.38;129561;1266;114805;-59
2023/11/13 11:01:51;;;;;;;5.70;3.20;;;;;;;8.93;70.16;99806.68;129839;1260;114769;-59
2023/11/13 11:04:56;;;;;;;5.80;3.10;;;;;;;8.95;70.04;99808.73;129464;1263;114794;-60
2023/11/13 11:07:58;;;;;;;13.80;9.60;;;;;;;8.95;69.40;99803.21;129245;1267;128096;-60
2023/11/13 11:11:03;;;;;;;10.80;4.70;;;;;;;8.94;69.49;99802.20;129517;1261;114893;-60
2023/11/13 11:14:19;;;;;;;9.90;4.00;;;;;;;8.93;69.45;99795.31;129357;1267;114845;-60
2023/11/13 11:17:31;;;;;;;7.70;2.60;;;;;;;8.90;69.51;99792.98;129372;1267;114729;-61
2023/11/13 11:20:47;;;;;;;6.90;3.00;;;;;;;8.87;69.48;99792.39;129351;1268;114853;-60
2023/11/13 11:24:04;;;;;;;6.90;2.80;;;;;;;8.85;69.29;99785.60;129575;1281;129038;-61
2023/11/13 11:27:07;;;;;;;6.50;2.90;;;;;;;8.82;69.21;99781.61;129458;1259;115164;-60
2023/11/13 11:30:27;;;;;;;7.90;2.60;;;;;;;8.81;68.91;99778.11;129281;1262;114777;-60
2023/11/13 11:33:36;;;;;;;4.70;2.40;;;;;;;8.82;68.87;99772.52;129435;1260;114741;-61
2023/11/13 11:36:38;;;;;;;6.10;3.00;;;;;;;8.87;69.19;99772.83;129576;1262;114764;-60
2023/11/13 11:39:47;;;;;;;9.90;3.50;;;;;;;8.93;69.31;99771.80;129531;1260;114799;-60
2023/11/13 11:42:49;;;;;;;8.90;3.60;;;;;;;9.06;69.08;99762.94;129539;1264;115183;-60
2023/11/13 11:45:52;;;;;;;8.90;3.30;;;;;;;9.20;69.19;99763.11;129603;1262;114799;-59
2023/11/13 11:48:59;;;;;;;7.10;2.60;;;;;;;9.36;69.22;99757.96;129497;1261;115170;-60
2023/11/13 11:52:08;;;;;;;7.80;3.80;;;;;;;9.54;68.42;99757.60;129187;1281;114832;-60
2023/11/13 11:55:12;;;;;;;7.90;3.60;;;;;;;9.73;67.55;99752.25;129446;1281;128828;-60
2023/11/13 11:58:24;;;;;;;3.50;2.40;;;;;;;9.93;66.75;99752.05;129483;1273;115274;-60
2023/11/13 12:01:27;;;;;;;2.60;1.90;;;;;;;10.07;66.51;99740.05;129423;1273;115042;-60
2023/11/13 12:04:33;;;;;;;4.40;2.20;;;;;;;10.19;65.80;99734.02;129506;1261;114763;-61
2023/11/13 12:07:36;;;;;;;4.20;2.50;;;;;;;10.29;65.52;99730.41;129358;1282;114953;-60
2023/11/13 12:10:39;;;;;;;4.50;1.90;;;;;;;10.38;64.36;99728.69;129503;1282;114691;-62
2023/11/13 12:13:42;;;;;;;2.60;1.20;;;;;;;10.39;64.02;99731.48;129443;1264;114920;-61
2023/11/13 12:16:45;;;;;;;2.90;1.40;;;;;;;10.38;63.67;99726.89;129516;1260;114836;-61
2023/11/13 12:19:51;;;;;;;2.50;1.70;;;;;;;10.36;63.30;99730.53;129429;1261;114806;-60
2023/11/13 12:22:55;;;;;;;2.90;1.90;;;;;;;10.32;62.86;99721.85;129159;1268;114974;-61
2023/11/13 12:25:57;;;;;;;6.50;2.40;;;;;;;10.28;62.91;99713.67;129225;1261;128679;-61
2023/11/13 12:29:17;;;;;;;3.50;1.70;;;;;;;10.25;62.80;99705.67;129474;1264;114809;-61
2023/11/13 12:32:19;;;;;;;2.20;1.70;;;;;;;10.21;62.45;99698.75;129280;1267;115113;-60
2023/11/13 12:35:22;;;;;;;4.00;1.90;;;;;;;10.16;62.28;99693.65;129367;1283;114822;-70
2023/11/13 12:38:26;;;;;;;3.20;1.50;;;;;;;10.11;61.87;99694.34;129302;1266;114713;-66
2023/11/13 12:41:29;;;;;;;2.40;1.30;;;;;;;10.03;61.36;99683.01;130055;1263;129259;-64
2023/11/13 12:44:34;;;;;;;2.90;1.50;;;;;;;9.95;61.28;99679.54;129475;1261;115234;-66
2023/11/13 12:47:36;;;;;;;5.40;1.80;;;;;;;9.82;60.90;99681.88;129316;1267;114949;-66
2023/11/13 12:50:38;;;;;;;4.00;1.80;;;;;;;9.67;60.85;99674.28;129548;1282;114802;-65
2023/11/13 12:53:47;;;;;;;4.30;1.70;;;;;;;9.55;60.83;99665.37;129542;1282;115106;-65
2023/11/13 12:56:50;;;;;;;2.50;1.90;;;;;;;9.43;61.13;99660.98;129352;1261;128070;-65
2023/11/13 12:59:52;;;;;;;6.80;2.70;;;;;;;9.34;60.68;99664.38;129689;1282;115343;-65
2023/11/13 13:02:55;;;;;;;6.20;3.10;;;;;;;9.25;61.20;99662.52;129681;1263;114729;-67
2023/11/13 13:05:57;;;;;;;10.30;2.90;;;;;;;9.21;61.48;99666.29;129701;1264;115212;-66
2023/11/13 13:09:00;;;;;;;6.80;3.00;;;;;;;9.20;61.48;99664.23;129620;1267;114802;-65
2023/11/13 13:12:03;;;;;;;7.60;3.80;;;;;;;9.19;61.94;99662.86;129786;1282;114720;-66
2023/11/13 13:15:20;;;;;;;7.00;4.30;;;;;;;9.17;62.05;99658.49;129616;1282;114914;-67
2023/11/13 13:18:22;;;;;;;4.90;3.10;;;;;;;9.13;61.56;99656.60;129399;1283;115259;-65
2023/11/13 13:21:28;;;;;;;6.90;2.90;;;;;;;9.05;61.85;99656.66;129663;1260;114801;-64
2023/11/13 13:24:31;;;;;;;4.30;2.90;;;;;;;8.98;61.84;99654.20;129353;1269;116031;-66
2023/11/13 13:27:33;;;;;;;17.50;3.30;;;;;;;8.89;61.83;99648.25;129629;1281;115101;-66
2023/11/13 13:30:39;;;;;;;6.00;2.80;;;;;;;8.80;61.91;99652.43;129707;1262;114817;-65
2023/11/13 13:33:42;;;;;;;5.50;2.90;;;;;;;8.74;62.05;99646.73;129436;1281;116465;-66
2023/11/13 13:36:45;;;;;;;5.50;2.90;;;;;;;8.67;62.15;99640.65;129776;1264;114682;-65
2023/11/13 13:39:50;;;;;;;6.80;2.90;;;;;;;8.61;62.44;99646.13;129748;1262;114680;-67
2023/11/13 13:42:58;;;;;;;8.60;3.70;;;;;;;8.56;62.91;99643.92;129714;1264;114694;-65
2023/11/13 13:46:00;;;;;;;5.10;3.20;;;;;;;8.50;62.97;99643.86;129338;1267;128177;-65
2023/11/13 13:49:05;;;;;;;6.50;3.60;;;;;;;8.45;63.01;99638.95;129263;1283;115164;-65
2023/11/13 13:52:07;;;;;;;7.30;3.70;;;;;;;8.39;63.52;99637.61;129421;1285;114846;-63
2023/11/13 13:55:12;;;;;;;5.60;3.40;;;;;;;8.34;63.59;99635.04;129453;1285;114867;-65
2023/11/13 13:58:15;;;;;;;6.40;4.20;;;;;;;8.28;63.56;99630.55;129399;1267;115734;-66
2023/11/13 14:01:20;;;;;;;7.10;3.60;;;;;;;8.22;63.90;99623.37;129372;1286;114914;-67
2023/11/13 14:04:22;;;;;;;8.30;3.80;;;;;;;8.16;63.78;99621.02;129082;1286;115185;-66